createdAt,value
2023-02-27T00:00:35.982Z,0.70
2023-02-27T00:01:35.960Z,0.60
2023-02-27T00:02:36.038Z,0.50
2023-02-27T00:03:35.978Z,0.50
2023-02-27T00:04:35.919Z,0.60
2023-02-27T00:05:35.925Z,0.70
2023-02-27T00:06:35.917Z,0.70
2023-02-27T00:07:35.913Z,0.70
2023-02-27T00:08:35.974Z,0.70
2023-02-27T00:09:35.863Z,0.60
2023-02-27T00:10:35.860Z,0.70
2023-02-27T00:11:35.838Z,0.60
2023-02-27T00:12:35.839Z,0.70
2023-02-27T00:13:35.812Z,0.70
2023-02-27T00:14:35.804Z,0.70
2023-02-27T00:15:35.816Z,0.80
2023-02-27T00:16:35.796Z,0.60
2023-02-27T00:17:35.773Z,0.80
2023-02-27T00:18:35.771Z,0.70
2023-02-27T00:19:35.789Z,0.60
2023-02-27T00:20:35.772Z,0.80
2023-02-27T00:21:36.869Z,0.70
2023-02-27T00:22:35.726Z,0.60
2023-02-27T00:23:35.711Z,0.80
2023-02-27T00:24:35.712Z,0.80
2023-02-27T00:25:35.721Z,0.50
2023-02-27T00:26:35.705Z,0.60
2023-02-27T00:27:35.692Z,0.70
2023-02-27T00:28:35.680Z,0.70
2023-02-27T00:29:35.683Z,0.70
2023-02-27T00:30:35.677Z,0.60
2023-02-27T00:31:35.662Z,0.70
2023-02-27T00:32:35.658Z,0.80
2023-02-27T00:33:35.626Z,0.60
2023-02-27T00:34:35.627Z,0.70
2023-02-27T00:35:35.608Z,0.50
2023-02-27T00:36:35.579Z,0.50
2023-02-27T00:37:35.575Z,0.60
2023-02-27T00:38:35.574Z,0.60
2023-02-27T00:39:35.564Z,0.80
2023-02-27T00:40:35.559Z,0.70
2023-02-27T00:41:35.554Z,0.60
2023-02-27T00:42:35.530Z,0.70
2023-02-27T00:43:35.527Z,0.50
2023-02-27T00:44:35.500Z,0.60
2023-02-27T00:45:35.555Z,0.70
2023-02-27T00:46:35.522Z,0.60
2023-02-27T00:47:35.493Z,0.70
2023-02-27T00:48:35.472Z,0.70
2023-02-27T00:49:35.460Z,0.60
2023-02-27T00:50:35.481Z,0.80
2023-02-27T00:51:35.469Z,0.90
2023-02-27T00:52:35.436Z,0.70
2023-02-27T00:53:35.448Z,0.70
2023-02-27T00:54:35.409Z,0.70
2023-02-27T00:55:35.412Z,0.70
2023-02-27T00:56:35.415Z,0.80
2023-02-27T00:57:35.410Z,0.70
2023-02-27T00:58:35.373Z,0.60
2023-02-27T00:59:35.417Z,0.70
2023-02-27T01:00:35.406Z,0.70
2023-02-27T01:01:35.350Z,0.80
2023-02-27T01:02:35.388Z,0.80
2023-02-27T01:03:35.350Z,0.70
2023-02-27T01:04:35.325Z,0.70
2023-02-27T01:05:35.347Z,0.60
2023-02-27T01:06:35.289Z,0.60
2023-02-27T01:07:35.287Z,0.70
2023-02-27T01:08:35.273Z,0.70
2023-02-27T01:09:35.273Z,0.70
2023-02-27T01:10:35.265Z,0.70
2023-02-27T01:11:35.258Z,0.60
2023-02-27T01:12:35.241Z,0.70
2023-02-27T01:13:35.240Z,0.60
2023-02-27T01:14:35.222Z,0.90
2023-02-27T01:15:35.222Z,0.50
2023-02-27T01:16:35.235Z,0.60
2023-02-27T01:17:35.224Z,0.60
2023-02-27T01:18:35.200Z,0.70
2023-02-27T01:19:35.182Z,0.60
2023-02-27T01:20:35.176Z,0.60
2023-02-27T01:21:35.159Z,0.70
2023-02-27T01:22:35.141Z,0.60
2023-02-27T01:23:35.166Z,0.70
2023-02-27T01:24:35.118Z,0.70
2023-02-27T01:25:35.131Z,0.80
2023-02-27T01:26:35.118Z,0.80
2023-02-27T01:27:35.144Z,0.60
2023-02-27T01:28:35.088Z,0.80
2023-02-27T01:29:35.117Z,0.80
2023-02-27T01:30:35.108Z,0.80
2023-02-27T01:31:35.074Z,0.60
2023-02-27T01:32:35.126Z,0.60
2023-02-27T01:33:35.047Z,0.60
2023-02-27T01:34:35.035Z,0.60
2023-02-27T01:35:41.071Z,0.70
2023-02-27T01:36:35.013Z,0.60
2023-02-27T01:37:35.013Z,0.60
2023-02-27T01:38:35.025Z,0.70
2023-02-27T01:39:34.995Z,0.60
2023-02-27T01:40:35.002Z,0.80
2023-02-27T01:41:34.975Z,0.60
2023-02-27T01:42:34.970Z,0.70
2023-02-27T01:43:34.943Z,0.70
2023-02-27T01:44:34.955Z,0.60
2023-02-27T01:45:34.955Z,0.70
2023-02-27T01:46:34.921Z,0.50
2023-02-27T01:47:34.912Z,0.60
2023-02-27T01:48:34.918Z,0.70
2023-02-27T01:49:34.896Z,0.70
2023-02-27T01:50:34.901Z,0.60
2023-02-27T01:51:34.870Z,0.60
2023-02-27T01:52:34.854Z,0.60
2023-02-27T01:53:34.851Z,0.50
2023-02-27T01:54:34.831Z,0.70
2023-02-27T01:55:34.862Z,0.80
2023-02-27T01:56:34.826Z,0.90
2023-02-27T01:57:34.814Z,0.60
2023-02-27T01:58:34.801Z,0.80
2023-02-27T01:59:34.824Z,0.60
2023-02-27T02:00:34.794Z,0.60
2023-02-27T02:01:34.859Z,0.80
2023-02-27T02:02:34.867Z,0.60
2023-02-27T02:03:34.756Z,0.60
2023-02-27T02:04:34.740Z,0.60
2023-02-27T02:05:34.766Z,0.50
2023-02-27T02:06:34.727Z,0.50
2023-02-27T02:07:34.718Z,0.70
2023-02-27T02:08:34.700Z,0.70
2023-02-27T02:09:34.704Z,0.60
2023-02-27T02:10:34.689Z,0.70
2023-02-27T02:11:34.672Z,0.60
2023-02-27T02:12:34.661Z,0.60
2023-02-27T02:13:34.688Z,0.70
2023-02-27T02:14:34.668Z,0.60
2023-02-27T02:15:34.666Z,0.60
2023-02-27T02:16:34.645Z,0.60
2023-02-27T02:17:34.619Z,0.60
2023-02-27T02:18:34.609Z,0.90
2023-02-27T02:19:34.604Z,0.70
2023-02-27T02:20:34.597Z,0.60
2023-02-27T02:21:34.574Z,0.80
2023-02-27T02:22:34.570Z,0.80
2023-02-27T02:23:34.567Z,0.80
2023-02-27T02:24:34.543Z,0.60
2023-02-27T02:25:34.558Z,0.80
2023-02-27T02:26:34.526Z,0.80
2023-02-27T02:27:34.525Z,0.60
2023-02-27T02:28:34.579Z,0.70
2023-02-27T02:29:34.496Z,0.50
2023-02-27T02:30:34.622Z,0.70
2023-02-27T02:31:34.640Z,0.60
2023-02-27T02:32:34.535Z,0.60
2023-02-27T02:33:34.506Z,0.70
2023-02-27T02:34:34.477Z,0.70
2023-02-27T02:35:34.484Z,0.80
2023-02-27T02:36:34.429Z,0.70
2023-02-27T02:37:34.422Z,1.00
2023-02-27T02:38:34.412Z,0.70
2023-02-27T02:39:34.408Z,0.70
2023-02-27T02:40:34.400Z,0.90
2023-02-27T02:41:34.394Z,0.80
2023-02-27T02:42:34.381Z,0.80
2023-02-27T02:43:34.373Z,0.70
2023-02-27T02:44:34.393Z,1.10
2023-02-27T02:45:34.373Z,0.80
2023-02-27T02:46:34.352Z,0.90
2023-02-27T02:47:34.330Z,0.80
2023-02-27T02:48:34.320Z,0.70
2023-02-27T02:49:34.311Z,0.80
2023-02-27T02:50:34.327Z,0.80
2023-02-27T02:51:34.323Z,1.10
2023-02-27T02:52:34.292Z,1.00
2023-02-27T02:53:37.361Z,0.80
2023-02-27T02:54:34.305Z,0.70
2023-02-27T02:55:34.264Z,0.80
2023-02-27T02:56:34.244Z,0.90
2023-02-27T02:57:34.236Z,0.80
2023-02-27T02:58:34.245Z,0.80
2023-02-27T02:59:34.217Z,0.70
2023-02-27T03:00:34.214Z,0.80
2023-02-27T03:01:34.233Z,0.70
2023-02-27T03:02:34.191Z,0.90
2023-02-27T03:03:34.199Z,0.70
2023-02-27T03:04:34.209Z,1.00
2023-02-27T03:05:34.186Z,1.10
2023-02-27T03:06:34.212Z,0.80
2023-02-27T03:07:34.148Z,0.90
2023-02-27T03:08:34.121Z,0.80
2023-02-27T03:09:34.146Z,0.90
2023-02-27T03:10:34.114Z,1.00
2023-02-27T03:11:34.094Z,0.90
2023-02-27T03:12:34.071Z,1.00
2023-02-27T03:13:34.066Z,1.00
2023-02-27T03:14:34.060Z,0.80
2023-02-27T03:15:34.092Z,0.80
2023-02-27T03:16:34.036Z,0.80
2023-02-27T03:17:34.028Z,0.90
2023-02-27T03:18:34.015Z,0.90
2023-02-27T03:19:34.006Z,1.00
2023-02-27T03:20:34.010Z,1.10
2023-02-27T03:21:33.994Z,0.80
2023-02-27T03:22:33.968Z,0.80
2023-02-27T03:23:33.973Z,0.90
2023-02-27T03:24:33.964Z,1.10
2023-02-27T03:25:33.964Z,0.80
2023-02-27T03:26:33.937Z,0.80
2023-02-27T03:27:33.943Z,1.10
2023-02-27T03:28:33.917Z,0.90
2023-02-27T03:29:33.911Z,0.90
2023-02-27T03:30:33.954Z,0.90
2023-02-27T03:31:34.014Z,1.10
2023-02-27T03:32:33.992Z,1.10
2023-02-27T03:33:33.907Z,0.70
2023-02-27T03:34:33.858Z,0.90
2023-02-27T03:35:33.860Z,1.10
2023-02-27T03:36:33.859Z,0.90
2023-02-27T03:37:33.830Z,0.90
2023-02-27T03:38:33.814Z,1.20
2023-02-27T03:39:33.830Z,1.00
2023-02-27T03:40:33.815Z,1.00
2023-02-27T03:41:33.789Z,1.00
2023-02-27T03:42:33.779Z,0.80
2023-02-27T03:43:33.770Z,1.10
2023-02-27T03:44:33.765Z,0.80
2023-02-27T03:45:33.771Z,0.90
2023-02-27T03:46:33.764Z,1.00
2023-02-27T03:47:33.738Z,1.10
2023-02-27T03:48:33.717Z,0.80
2023-02-27T03:49:33.713Z,1.10
2023-02-27T03:50:33.715Z,1.00
2023-02-27T03:51:33.700Z,1.10
2023-02-27T03:52:33.689Z,1.20
2023-02-27T03:53:33.670Z,0.90
2023-02-27T03:54:33.665Z,1.10
2023-02-27T03:55:33.711Z,1.20
2023-02-27T03:56:33.646Z,0.90
2023-02-27T03:57:33.652Z,1.00
2023-02-27T03:58:33.628Z,0.90
2023-02-27T03:59:33.621Z,1.10
2023-02-27T04:00:33.618Z,1.00
2023-02-27T04:01:33.689Z,0.80
2023-02-27T04:02:33.632Z,0.90
2023-02-27T04:03:33.586Z,1.00
2023-02-27T04:04:33.562Z,1.10
2023-02-27T04:05:33.589Z,1.00
2023-02-27T04:06:33.541Z,0.90
2023-02-27T04:07:33.537Z,1.00
2023-02-27T04:08:33.558Z,1.00
2023-02-27T04:09:33.513Z,0.90
2023-02-27T04:10:33.517Z,1.00
2023-02-27T04:11:33.497Z,1.00
2023-02-27T04:12:33.496Z,0.80
2023-02-27T04:13:33.478Z,1.10
2023-02-27T04:14:33.462Z,1.10
2023-02-27T04:15:33.486Z,1.00
2023-02-27T04:16:33.446Z,0.80
2023-02-27T04:17:33.446Z,1.00
2023-02-27T04:18:33.430Z,0.90
2023-02-27T04:19:33.422Z,1.00
2023-02-27T04:20:33.422Z,0.90
2023-02-27T04:21:33.397Z,0.90
2023-02-27T04:22:33.387Z,1.20
2023-02-27T04:23:33.388Z,1.10
2023-02-27T04:24:33.366Z,1.10
2023-02-27T04:25:33.376Z,1.10
2023-02-27T04:26:33.349Z,1.10
2023-02-27T04:27:33.353Z,1.00
2023-02-27T04:28:33.328Z,1.10
2023-02-27T04:29:33.326Z,1.00
2023-02-27T04:30:33.329Z,1.00
2023-02-27T04:31:33.403Z,1.00
2023-02-27T04:32:33.446Z,1.00
2023-02-27T04:33:33.303Z,1.10
2023-02-27T04:34:33.277Z,1.10
2023-02-27T04:35:33.291Z,1.00
2023-02-27T04:36:33.262Z,1.10
2023-02-27T04:37:33.250Z,1.10
2023-02-27T04:38:33.249Z,1.00
2023-02-27T04:39:33.230Z,0.90
2023-02-27T04:40:33.188Z,1.10
2023-02-27T04:41:33.224Z,0.90
2023-02-27T04:42:33.211Z,1.10
2023-02-27T04:43:33.195Z,1.00
2023-02-27T04:44:33.189Z,1.10
2023-02-27T04:45:33.255Z,1.10
2023-02-27T04:46:33.184Z,1.00
2023-02-27T04:47:33.152Z,1.20
2023-02-27T04:48:33.162Z,1.10
2023-02-27T04:49:33.139Z,1.00
2023-02-27T04:50:33.133Z,1.20
2023-02-27T04:51:33.143Z,1.00
2023-02-27T04:52:33.104Z,1.10
2023-02-27T04:53:33.107Z,1.00
2023-02-27T04:54:33.089Z,1.00
2023-02-27T04:55:33.104Z,1.20
2023-02-27T04:56:33.069Z,1.10
2023-02-27T04:57:33.077Z,1.10
2023-02-27T04:58:33.052Z,1.00
2023-02-27T04:59:33.067Z,0.90
2023-02-27T05:00:33.069Z,1.20
2023-02-27T05:01:33.044Z,1.20
2023-02-27T05:02:33.104Z,1.10
2023-02-27T05:03:33.006Z,1.20
2023-02-27T05:04:32.992Z,1.00
2023-02-27T05:05:33.010Z,1.20
2023-02-27T05:06:32.986Z,1.40
2023-02-27T05:07:32.980Z,1.20
2023-02-27T05:08:32.959Z,1.10
2023-02-27T05:09:32.958Z,1.00
2023-02-27T05:10:32.963Z,1.00
2023-02-27T05:11:32.938Z,1.10
2023-02-27T05:12:32.960Z,1.00
2023-02-27T05:13:32.897Z,1.10
2023-02-27T05:14:32.898Z,1.20
2023-02-27T05:15:32.981Z,1.00
2023-02-27T05:16:32.953Z,1.00
2023-02-27T05:17:33.024Z,0.90
2023-02-27T05:18:32.912Z,1.00
2023-02-27T05:19:32.856Z,1.10
2023-02-27T05:20:32.860Z,1.00
2023-02-27T05:21:32.827Z,1.20
2023-02-27T05:22:32.813Z,1.00
2023-02-27T05:23:32.805Z,1.10
2023-02-27T05:24:32.814Z,0.90
2023-02-27T05:25:32.797Z,1.10
2023-02-27T05:26:32.776Z,0.90
2023-02-27T05:27:32.764Z,1.20
2023-02-27T05:28:32.761Z,1.10
2023-02-27T05:29:32.759Z,1.10
2023-02-27T05:30:32.804Z,1.10
2023-02-27T05:31:32.791Z,1.20
2023-02-27T05:32:32.739Z,1.10
2023-02-27T05:33:32.722Z,1.30
2023-02-27T05:34:32.713Z,1.00
2023-02-27T05:35:32.764Z,1.10
2023-02-27T05:36:32.680Z,1.20
2023-02-27T05:37:32.612Z,1.10
2023-02-27T05:38:32.604Z,1.00
2023-02-27T05:39:32.594Z,1.00
2023-02-27T05:40:32.604Z,1.20
2023-02-27T05:41:32.566Z,1.20
2023-02-27T05:42:32.584Z,1.10
2023-02-27T05:43:32.563Z,1.00
2023-02-27T05:44:32.559Z,0.90
2023-02-27T05:45:32.623Z,1.20
2023-02-27T05:46:32.559Z,0.90
2023-02-27T05:47:32.512Z,1.10
2023-02-27T05:48:32.532Z,1.00
2023-02-27T05:49:32.499Z,1.10
2023-02-27T05:50:32.502Z,1.00
2023-02-27T05:51:32.478Z,1.20
2023-02-27T05:52:32.478Z,1.00
2023-02-27T05:53:32.460Z,1.00
2023-02-27T05:54:32.449Z,1.00
2023-02-27T05:55:32.444Z,1.10
2023-02-27T05:56:32.466Z,1.00
2023-02-27T05:57:32.440Z,1.10
2023-02-27T05:58:32.420Z,1.10
2023-02-27T05:59:32.411Z,1.20
2023-02-27T06:00:32.405Z,1.00
2023-02-27T06:01:32.381Z,1.20
2023-02-27T06:02:32.462Z,1.30
2023-02-27T06:03:32.427Z,0.90
2023-02-27T06:04:32.389Z,1.10
2023-02-27T06:05:32.364Z,1.00
2023-02-27T06:06:32.329Z,1.10
2023-02-27T06:07:32.323Z,1.00
2023-02-27T06:08:32.326Z,1.30
2023-02-27T06:09:32.299Z,1.00
2023-02-27T06:10:32.319Z,1.30
2023-02-27T06:11:32.333Z,1.10
2023-02-27T06:12:32.280Z,1.30
2023-02-27T06:13:32.278Z,0.90
2023-02-27T06:14:32.263Z,1.20
2023-02-27T06:15:32.254Z,1.30
2023-02-27T06:16:32.271Z,1.10
2023-02-27T06:17:32.229Z,1.20
2023-02-27T06:18:32.216Z,1.40
2023-02-27T06:19:32.210Z,1.30
2023-02-27T06:20:32.219Z,1.40
2023-02-27T06:21:32.190Z,1.40
2023-02-27T06:22:32.180Z,1.50
2023-02-27T06:23:32.167Z,1.30
2023-02-27T06:24:32.164Z,1.10
2023-02-27T06:25:32.161Z,1.20
2023-02-27T06:26:32.176Z,0.90
2023-02-27T06:27:32.130Z,1.60
2023-02-27T06:28:32.124Z,1.20
2023-02-27T06:29:32.119Z,1.30
2023-02-27T06:30:32.169Z,1.20
2023-02-27T06:31:32.095Z,1.20
2023-02-27T06:32:32.092Z,1.20
2023-02-27T06:33:32.067Z,1.30
2023-02-27T06:34:32.064Z,1.20
2023-02-27T06:35:32.150Z,1.00
2023-02-27T06:36:32.077Z,1.50
2023-02-27T06:37:32.043Z,1.40
2023-02-27T06:38:32.024Z,1.50
2023-02-27T06:39:32.007Z,1.30
2023-02-27T06:40:32.009Z,1.30
2023-02-27T06:41:31.995Z,1.30
2023-02-27T06:42:31.976Z,1.30
2023-02-27T06:43:32.260Z,1.10
2023-02-27T06:44:31.968Z,1.50
2023-02-27T06:45:31.957Z,1.20
2023-02-27T06:46:31.979Z,1.30
2023-02-27T06:47:31.932Z,1.20
2023-02-27T06:48:31.931Z,1.20
2023-02-27T06:49:31.966Z,1.10
2023-02-27T06:50:31.920Z,1.30
2023-02-27T06:51:31.886Z,1.20
2023-02-27T06:52:31.892Z,1.10
2023-02-27T06:53:31.867Z,1.20
2023-02-27T06:54:31.869Z,1.40
2023-02-27T06:55:31.864Z,1.30
2023-02-27T06:56:31.860Z,1.50
2023-02-27T06:57:31.843Z,1.30
2023-02-27T06:58:31.834Z,1.10
2023-02-27T06:59:31.816Z,1.20
2023-02-27T07:00:31.833Z,1.40
2023-02-27T07:01:31.861Z,1.20
2023-02-27T07:02:31.783Z,1.10
2023-02-27T07:03:31.766Z,1.30
2023-02-27T07:04:31.786Z,1.20
2023-02-27T07:05:31.760Z,1.40
2023-02-27T07:07:32.955Z,1.40
2023-02-27T07:07:41.079Z,1.30
2023-02-27T07:08:31.735Z,1.10
2023-02-27T07:09:31.711Z,1.50
2023-02-27T07:10:31.706Z,1.30
2023-02-27T07:11:31.707Z,1.30
2023-02-27T07:12:31.692Z,1.80
2023-02-27T07:13:31.679Z,1.40
2023-02-27T07:14:31.673Z,1.30
2023-02-27T07:15:31.652Z,1.40
2023-02-27T07:16:31.703Z,1.40
2023-02-27T07:17:31.670Z,1.60
2023-02-27T07:18:31.629Z,1.30
2023-02-27T07:19:31.616Z,1.40
2023-02-27T07:20:31.629Z,1.20
2023-02-27T07:21:31.608Z,1.20
2023-02-27T07:22:31.607Z,1.10
2023-02-27T07:23:31.588Z,1.50
2023-02-27T07:24:31.572Z,1.20
2023-02-27T07:25:31.558Z,1.50
2023-02-27T07:26:31.564Z,1.20
2023-02-27T07:27:31.534Z,1.40
2023-02-27T07:28:31.776Z,1.30
2023-02-27T07:29:31.527Z,1.40
2023-02-27T07:30:31.531Z,1.20
2023-02-27T07:31:31.580Z,1.50
2023-02-27T07:32:31.493Z,1.40
2023-02-27T07:33:31.483Z,1.20
2023-02-27T07:34:31.483Z,1.50
2023-02-27T07:35:31.538Z,1.30
2023-02-27T07:36:39.929Z,1.30
2023-02-27T07:37:31.442Z,1.30
2023-02-27T07:38:31.441Z,1.40
2023-02-27T07:39:31.434Z,1.20
2023-02-27T07:40:31.461Z,1.10
2023-02-27T07:41:31.478Z,1.50
2023-02-27T07:42:31.401Z,1.20
2023-02-27T07:43:31.529Z,1.60
2023-02-27T07:44:31.464Z,1.10
2023-02-27T07:45:31.370Z,1.20
2023-02-27T07:46:31.740Z,1.10
2023-02-27T07:47:31.372Z,1.40
2023-02-27T07:48:31.360Z,1.30
2023-02-27T07:49:31.345Z,1.30
2023-02-27T07:50:31.325Z,1.60
2023-02-27T07:51:31.485Z,1.60
2023-02-27T07:52:31.367Z,1.40
2023-02-27T07:53:31.289Z,1.30
2023-02-27T07:54:32.188Z,1.30
2023-02-27T07:55:31.298Z,1.20
2023-02-27T07:56:31.289Z,1.30
2023-02-27T07:57:31.368Z,1.50
2023-02-27T07:58:31.252Z,1.30
2023-02-27T07:59:31.255Z,1.40
2023-02-27T08:00:31.237Z,1.40
2023-02-27T08:01:31.349Z,1.40
2023-02-27T08:02:31.264Z,1.10
2023-02-27T08:03:31.198Z,1.40
2023-02-27T08:04:31.307Z,1.20
2023-02-27T08:05:31.194Z,1.40
2023-02-27T08:06:31.224Z,1.40
2023-02-27T08:07:31.162Z,1.30
2023-02-27T08:08:31.151Z,1.50
2023-02-27T08:09:31.161Z,1.50
2023-02-27T08:10:31.208Z,1.50
2023-02-27T08:11:31.211Z,1.20
2023-02-27T08:12:31.155Z,1.40
2023-02-27T08:13:59.009Z,1.40
2023-02-27T08:14:31.099Z,1.40
2023-02-27T08:15:31.104Z,1.10
2023-02-27T08:16:31.943Z,1.40
2023-02-27T08:17:31.066Z,1.40
2023-02-27T08:18:31.057Z,1.40
2023-02-27T08:19:31.066Z,1.40
2023-02-27T08:20:31.046Z,1.20
2023-02-27T08:21:31.246Z,1.40
2023-02-27T08:22:31.153Z,1.30
2023-02-27T08:23:31.012Z,1.40
2023-02-27T08:24:31.003Z,1.30
2023-02-27T08:25:31.022Z,1.40
2023-02-27T08:26:31.244Z,1.50
2023-02-27T08:27:30.992Z,1.60
2023-02-27T08:28:30.973Z,1.40
2023-02-27T08:29:31.030Z,1.40
2023-02-27T08:30:30.967Z,1.50
2023-02-27T08:31:31.032Z,1.50
2023-02-27T08:32:31.007Z,1.40
2023-02-27T08:33:30.937Z,1.50
2023-02-27T08:34:30.937Z,1.40
2023-02-27T08:35:31.059Z,1.50
2023-02-27T08:36:30.885Z,1.50
2023-02-27T08:37:30.866Z,1.30
2023-02-27T08:38:30.865Z,1.40
2023-02-27T08:39:30.839Z,1.40
2023-02-27T08:40:30.834Z,1.40
2023-02-27T08:41:30.896Z,1.60
2023-02-27T08:42:30.860Z,1.20
2023-02-27T08:43:30.789Z,1.20
2023-02-27T08:44:30.790Z,1.50
2023-02-27T08:45:30.844Z,1.60
2023-02-27T08:46:30.886Z,1.30
2023-02-27T08:47:30.768Z,1.40
2023-02-27T08:48:30.762Z,1.50
2023-02-27T08:49:30.759Z,1.60
2023-02-27T08:50:30.762Z,1.40
2023-02-27T08:51:30.864Z,1.40
2023-02-27T08:52:30.739Z,1.20
2023-02-27T08:53:30.716Z,1.50
2023-02-27T08:54:30.711Z,1.20
2023-02-27T08:55:30.751Z,1.40
2023-02-27T08:56:30.689Z,1.40
2023-02-27T08:57:30.712Z,1.70
2023-02-27T08:58:30.682Z,1.40
2023-02-27T08:59:30.690Z,1.40
2023-02-27T09:00:30.630Z,1.50
2023-02-27T09:01:31.074Z,1.50
2023-02-27T09:02:30.622Z,1.40
2023-02-27T09:03:30.603Z,1.20
2023-02-27T09:04:30.680Z,1.20
2023-02-27T09:05:30.588Z,1.30
2023-02-27T09:06:30.985Z,1.40
2023-02-27T09:07:30.587Z,1.20
2023-02-27T09:08:30.571Z,1.20
2023-02-27T09:09:30.576Z,1.30
2023-02-27T09:10:30.543Z,1.30
2023-02-27T09:11:30.892Z,1.10
2023-02-27T09:12:30.531Z,1.10
2023-02-27T09:13:30.537Z,1.20
2023-02-27T09:14:30.531Z,1.20
2023-02-27T09:15:30.477Z,1.20
2023-02-27T09:16:30.841Z,1.20
2023-02-27T09:17:30.472Z,1.30
2023-02-27T09:18:30.487Z,1.40
2023-02-27T09:19:30.459Z,1.20
2023-02-27T09:20:30.584Z,1.20
2023-02-27T09:21:30.460Z,1.10
2023-02-27T09:22:30.434Z,1.20
2023-02-27T09:23:30.455Z,1.30
2023-02-27T09:24:30.439Z,1.40
2023-02-27T09:25:30.451Z,1.20
2023-02-27T09:26:42.253Z,1.40
2023-02-27T09:27:30.389Z,1.20
2023-02-27T09:28:30.366Z,1.20
2023-02-27T09:29:30.358Z,1.50
2023-02-27T09:30:30.390Z,1.10
2023-02-27T09:31:32.946Z,1.20
2023-02-27T09:32:30.641Z,1.00
2023-02-27T09:33:30.311Z,1.30
2023-02-27T09:34:30.330Z,1.30
2023-02-27T09:35:30.327Z,1.20
2023-02-27T09:36:30.412Z,1.00
2023-02-27T09:37:30.321Z,1.20
2023-02-27T09:38:30.276Z,1.00
2023-02-27T09:39:30.311Z,1.10
2023-02-27T09:40:30.242Z,1.20
2023-02-27T09:41:30.365Z,1.30
2023-02-27T09:42:30.259Z,1.30
2023-02-27T09:43:30.247Z,1.30
2023-02-27T09:44:44.932Z,1.20
2023-02-27T09:45:30.206Z,1.30
2023-02-27T09:46:30.266Z,1.10
2023-02-27T09:47:30.236Z,1.20
2023-02-27T09:48:30.156Z,1.10
2023-02-27T09:49:30.154Z,1.00
2023-02-27T09:50:30.147Z,1.10
2023-02-27T09:51:30.362Z,1.20
2023-02-27T09:52:30.126Z,1.10
2023-02-27T09:53:30.141Z,1.20
2023-02-27T09:54:30.120Z,1.00
2023-02-27T09:55:30.094Z,1.20
2023-02-27T09:56:30.184Z,1.20
2023-02-27T09:57:30.096Z,1.20
2023-02-27T09:58:30.085Z,1.50
2023-02-27T09:59:30.057Z,1.60
2023-02-27T10:00:30.087Z,1.10
2023-02-27T10:01:30.269Z,1.00
2023-02-27T10:02:30.032Z,1.20
2023-02-27T10:03:30.097Z,1.30
2023-02-27T10:04:30.035Z,1.20
2023-02-27T10:05:29.994Z,1.20
2023-02-27T10:06:30.487Z,1.20
2023-02-27T10:07:29.993Z,1.10
2023-02-27T10:08:30.000Z,1.10
2023-02-27T10:09:29.964Z,1.00
2023-02-27T10:10:30.026Z,1.20
2023-02-27T10:11:29.962Z,1.40
2023-02-27T10:12:29.918Z,1.10
2023-02-27T10:13:29.915Z,1.00
2023-02-27T10:14:29.981Z,1.20
2023-02-27T10:15:29.912Z,1.10
2023-02-27T10:16:30.355Z,1.10
2023-02-27T10:17:29.970Z,1.00
2023-02-27T10:18:30.989Z,1.20
2023-02-27T10:19:29.858Z,1.10
2023-02-27T10:20:29.861Z,1.00
2023-02-27T10:21:31.117Z,1.00
2023-02-27T10:22:29.884Z,1.10
2023-02-27T10:23:29.894Z,0.80
2023-02-27T10:24:29.874Z,1.20
2023-02-27T10:25:31.934Z,1.00
2023-02-27T10:26:29.837Z,1.10
2023-02-27T10:27:29.830Z,0.90
2023-02-27T10:28:29.782Z,0.90
2023-02-27T10:29:29.805Z,0.90
2023-02-27T10:30:32.325Z,0.80
2023-02-27T10:31:30.248Z,1.20
2023-02-27T10:32:29.817Z,0.90
2023-02-27T10:33:29.737Z,0.90
2023-02-27T10:34:29.730Z,1.10
2023-02-27T10:35:29.715Z,0.90
2023-02-27T10:36:34.002Z,0.80
2023-02-27T10:37:29.727Z,0.90
2023-02-27T10:38:29.710Z,1.00
2023-02-27T10:39:29.661Z,1.00
2023-02-27T10:40:29.655Z,0.70
2023-02-27T10:41:30.119Z,1.10
2023-02-27T10:42:29.641Z,1.00
2023-02-27T10:43:29.711Z,0.90
2023-02-27T10:44:29.604Z,0.80
2023-02-27T10:45:29.621Z,1.20
2023-02-27T10:46:29.988Z,0.70
2023-02-27T10:47:29.578Z,0.90
2023-02-27T10:48:29.565Z,1.00
2023-02-27T10:49:29.571Z,0.90
2023-02-27T10:50:29.582Z,0.80
2023-02-27T10:51:29.822Z,1.00
2023-02-27T10:52:29.519Z,0.90
2023-02-27T10:53:29.544Z,0.80
2023-02-27T10:54:29.519Z,1.00
2023-02-27T10:55:29.502Z,1.00
2023-02-27T10:56:29.836Z,0.70
2023-02-27T10:57:29.465Z,1.00
2023-02-27T10:58:29.513Z,1.00
2023-02-27T10:59:29.449Z,0.90
2023-02-27T11:00:29.480Z,0.90
2023-02-27T11:01:29.845Z,0.80
2023-02-27T11:02:29.472Z,1.00
2023-02-27T11:03:29.452Z,0.90
2023-02-27T11:04:29.475Z,0.90
2023-02-27T11:05:29.402Z,1.00
2023-02-27T11:06:29.475Z,1.20
2023-02-27T11:07:29.388Z,0.80
2023-02-27T11:08:29.372Z,0.90
2023-02-27T11:09:29.349Z,0.80
2023-02-27T11:10:29.339Z,0.90
2023-02-27T11:11:29.614Z,0.90
2023-02-27T11:12:29.393Z,0.90
2023-02-27T11:13:29.342Z,0.90
2023-02-27T11:14:29.357Z,0.90
2023-02-27T11:15:29.365Z,0.80
2023-02-27T11:16:29.282Z,1.00
2023-02-27T11:17:29.282Z,0.80
2023-02-27T11:18:29.358Z,1.00
2023-02-27T11:19:29.246Z,1.10
2023-02-27T11:20:29.240Z,0.90
2023-02-27T11:21:29.853Z,1.10
2023-02-27T11:22:29.218Z,1.10
2023-02-27T11:23:29.250Z,0.90
2023-02-27T11:24:29.190Z,0.90
2023-02-27T11:25:29.184Z,1.00
2023-02-27T11:26:29.201Z,1.00
2023-02-27T11:27:29.214Z,0.80
2023-02-27T11:28:29.160Z,1.00
2023-02-27T11:29:29.181Z,1.00
2023-02-27T11:30:29.133Z,1.00
2023-02-27T11:31:29.739Z,0.90
2023-02-27T11:32:29.180Z,0.90
2023-02-27T11:33:29.123Z,1.00
2023-02-27T11:34:29.101Z,0.90
2023-02-27T11:35:29.142Z,0.90
2023-02-27T11:36:29.101Z,0.90
2023-02-27T11:37:29.065Z,0.90
2023-02-27T11:38:29.118Z,0.90
2023-02-27T11:39:29.060Z,1.20
2023-02-27T11:40:29.048Z,1.00
2023-02-27T11:41:29.438Z,0.90
2023-02-27T11:42:29.020Z,1.10
2023-02-27T11:43:29.016Z,0.90
2023-02-27T11:44:38.595Z,0.80
2023-02-27T11:46:04.640Z,0.90
2023-02-27T11:46:46.961Z,1.10
2023-02-27T11:47:29.008Z,0.90
2023-02-27T11:48:28.958Z,1.00
2023-02-27T11:49:28.947Z,1.00
2023-02-27T11:50:28.937Z,1.00
2023-02-27T11:51:29.253Z,1.00
2023-02-27T11:52:28.940Z,1.00
2023-02-27T11:53:28.924Z,0.90
2023-02-27T11:54:28.917Z,0.90
2023-02-27T11:55:28.893Z,1.00
2023-02-27T11:56:28.897Z,0.90
2023-02-27T11:57:28.929Z,1.00
2023-02-27T11:58:28.851Z,1.00
2023-02-27T11:59:28.872Z,1.00
2023-02-27T12:00:28.838Z,1.30
2023-02-27T12:01:29.886Z,0.90
2023-02-27T12:02:28.876Z,0.90
2023-02-27T12:03:28.827Z,0.90
2023-02-27T12:04:28.808Z,0.90
2023-02-27T12:05:28.804Z,0.90
2023-02-27T12:06:28.790Z,1.10
2023-02-27T12:07:28.815Z,0.90
2023-02-27T12:08:28.775Z,1.00
2023-02-27T12:09:28.754Z,1.00
2023-02-27T12:10:28.779Z,1.10
2023-02-27T12:11:29.147Z,1.00
2023-02-27T12:12:28.722Z,1.10
2023-02-27T12:13:28.758Z,1.00
2023-02-27T12:14:28.770Z,0.90
2023-02-27T12:15:28.701Z,1.10
2023-02-27T12:16:30.932Z,1.10
2023-02-27T12:17:28.710Z,1.00
2023-02-27T12:18:28.651Z,1.00
2023-02-27T12:19:28.663Z,1.10
2023-02-27T12:20:28.669Z,1.10
2023-02-27T12:21:28.650Z,0.80
2023-02-27T12:22:28.650Z,1.00
2023-02-27T12:23:28.609Z,1.20
2023-02-27T12:24:28.657Z,0.80
2023-02-27T12:25:28.590Z,1.00
2023-02-27T12:26:28.956Z,1.10
2023-02-27T12:27:28.584Z,0.90
2023-02-27T12:28:28.564Z,1.10
2023-02-27T12:29:28.569Z,1.30
2023-02-27T12:30:28.534Z,0.90
2023-02-27T12:31:28.804Z,0.90
2023-02-27T12:32:28.576Z,1.20
2023-02-27T12:33:28.517Z,1.00
2023-02-27T12:34:28.545Z,1.00
2023-02-27T12:35:28.640Z,1.00
2023-02-27T12:36:28.648Z,0.90
2023-02-27T12:37:28.522Z,0.90
2023-02-27T12:38:29.238Z,1.20
2023-02-27T12:39:28.557Z,1.10
2023-02-27T12:40:28.483Z,1.00
2023-02-27T12:41:28.735Z,1.00
2023-02-27T12:42:28.417Z,0.70
2023-02-27T12:43:28.401Z,1.00
2023-02-27T12:44:28.380Z,1.00
2023-02-27T12:45:28.482Z,1.00
2023-02-27T12:46:28.392Z,0.90
2023-02-27T12:47:28.395Z,0.90
2023-02-27T12:48:28.341Z,1.00
2023-02-27T12:49:28.335Z,0.90
2023-02-27T12:50:28.369Z,1.10
2023-02-27T12:51:28.740Z,1.10
2023-02-27T12:52:28.352Z,0.90
2023-02-27T12:53:28.299Z,0.90
2023-02-27T12:54:28.299Z,0.80
2023-02-27T12:55:28.280Z,0.80
2023-02-27T12:56:28.325Z,0.90
2023-02-27T12:57:28.267Z,1.00
2023-02-27T12:58:28.249Z,0.80
2023-02-27T12:59:28.249Z,1.00
2023-02-27T13:00:28.229Z,1.00
2023-02-27T13:01:28.634Z,1.00
2023-02-27T13:02:28.206Z,0.90
2023-02-27T13:03:28.197Z,0.90
2023-02-27T13:04:28.189Z,1.10
2023-02-27T13:05:28.220Z,1.00
2023-02-27T13:06:28.239Z,1.10
2023-02-27T13:07:28.180Z,1.10
2023-02-27T13:08:28.154Z,1.20
2023-02-27T13:09:28.138Z,0.90
2023-02-27T13:10:28.204Z,1.20
2023-02-27T13:11:28.532Z,0.90
2023-02-27T13:12:28.115Z,1.00
2023-02-27T13:13:28.107Z,0.90
2023-02-27T13:14:28.109Z,1.10
2023-02-27T13:15:28.124Z,0.90
2023-02-27T13:16:28.133Z,1.00
2023-02-27T13:17:28.077Z,1.10
2023-02-27T13:18:28.068Z,1.00